createdAt,value
2023-06-19T00:00:13.637Z,21.44
2023-06-19T00:01:45.339Z,21.25
2023-06-19T00:03:17.024Z,21.17
2023-06-19T00:04:50.032Z,21.26
2023-06-19T00:06:21.636Z,21.34
2023-06-19T00:07:53.355Z,21.32
2023-06-19T00:09:25.078Z,21.31
2023-06-19T00:10:56.725Z,21.17
2023-06-19T00:12:28.328Z,21.07
2023-06-19T00:14:00.077Z,21.03
2023-06-19T00:15:31.710Z,20.78
2023-06-19T00:17:03.644Z,20.92
2023-06-19T00:18:40.894Z,20.78
2023-06-19T00:20:14.670Z,20.87
2023-06-19T00:21:47.012Z,20.82
2023-06-19T00:23:18.644Z,20.82
2023-06-19T00:24:50.368Z,20.75
2023-06-19T00:26:26.419Z,20.93
2023-06-19T00:27:58.137Z,20.91
2023-06-19T00:29:29.842Z,20.86
2023-06-19T00:31:01.517Z,20.96
2023-06-19T00:32:33.154Z,20.74
2023-06-19T00:34:04.795Z,20.75
2023-06-19T00:35:37.844Z,20.76
2023-06-19T00:37:09.756Z,20.83
2023-06-19T00:38:41.464Z,20.90
2023-06-19T00:43:53.996Z,20.82
2023-06-19T00:45:26.459Z,20.82
2023-06-19T00:47:00.622Z,20.73
2023-06-19T00:48:33.080Z,20.79
2023-06-19T00:50:05.527Z,20.76
2023-06-19T00:51:38.700Z,20.70
2023-06-19T00:53:10.384Z,20.60
2023-06-19T00:54:42.003Z,20.50
2023-06-19T00:56:13.638Z,20.36
2023-06-19T00:57:45.286Z,20.41
2023-06-19T00:59:20.828Z,20.36
2023-06-19T01:01:03.813Z,20.28
2023-06-19T01:02:39.888Z,20.53
2023-06-19T01:04:11.703Z,20.58
2023-06-19T01:05:43.738Z,20.53
2023-06-19T01:07:16.839Z,20.40
2023-06-19T01:08:52.353Z,20.48
2023-06-19T01:10:26.397Z,20.35
2023-06-19T01:12:00.181Z,20.45
2023-06-19T01:13:34.761Z,20.16
2023-06-19T01:15:07.611Z,19.85
2023-06-19T01:16:39.361Z,19.72
2023-06-19T01:18:12.429Z,19.96
2023-06-19T01:19:44.185Z,20.13
2023-06-19T01:21:16.376Z,20.23
2023-06-19T01:22:49.337Z,20.04
2023-06-19T01:24:21.099Z,20.09
2023-06-19T01:25:52.988Z,19.99
2023-06-19T01:27:24.847Z,19.78
2023-06-19T01:28:56.696Z,19.63
2023-06-19T01:30:28.555Z,19.49
2023-06-19T01:32:06.377Z,19.34
2023-06-19T01:33:38.014Z,19.54
2023-06-19T01:35:12.596Z,19.64
2023-06-19T01:36:44.349Z,19.65
2023-06-19T01:38:18.052Z,19.56
2023-06-19T01:39:49.859Z,19.71
2023-06-19T01:41:21.660Z,19.78
2023-06-19T01:42:53.680Z,19.97
2023-06-19T01:44:25.425Z,19.88
2023-06-19T01:45:57.070Z,19.96
2023-06-19T01:47:28.767Z,19.77
2023-06-19T01:49:00.478Z,19.93
2023-06-19T01:50:32.108Z,19.94
2023-06-19T01:52:04.290Z,19.76
2023-06-19T01:53:37.663Z,19.72
2023-06-19T01:55:10.588Z,19.68
2023-06-19T01:56:42.361Z,19.77
2023-06-19T01:58:14.039Z,19.54
2023-06-19T01:59:45.664Z,19.57
2023-06-19T02:01:17.490Z,19.42
2023-06-19T02:02:49.145Z,19.61
2023-06-19T02:04:20.868Z,19.56
2023-06-19T02:05:52.695Z,19.56
2023-06-19T02:07:24.496Z,19.57
2023-06-19T02:08:57.660Z,19.78
2023-06-19T02:10:29.475Z,19.75
2023-06-19T02:12:01.177Z,19.80
2023-06-19T02:13:32.910Z,19.99
2023-06-19T02:15:05.329Z,20.04
2023-06-19T02:16:36.992Z,20.04
2023-06-19T02:18:09.493Z,19.88
2023-06-19T02:19:41.159Z,19.97
2023-06-19T02:21:12.861Z,19.99
2023-06-19T02:22:44.664Z,20.10
2023-06-19T02:24:17.683Z,19.89
2023-06-19T02:25:49.389Z,19.69
2023-06-19T02:27:21.062Z,19.89
2023-06-19T02:28:52.844Z,19.87
2023-06-19T02:30:24.801Z,19.80
2023-06-19T02:31:56.600Z,19.69
2023-06-19T02:33:28.266Z,19.77
2023-06-19T02:34:59.944Z,19.56
2023-06-19T02:36:31.656Z,19.51
2023-06-19T02:38:05.667Z,19.62
2023-06-19T02:39:39.138Z,19.74
2023-06-19T02:41:10.776Z,19.71
2023-06-19T02:42:42.499Z,19.62
2023-06-19T02:44:14.869Z,19.68
2023-06-19T02:45:46.631Z,19.77
2023-06-19T02:47:18.367Z,19.79
2023-06-19T02:48:50.058Z,19.85
2023-06-19T02:50:22.082Z,19.83
2023-06-19T02:51:54.018Z,19.95
2023-06-19T02:53:25.688Z,20.02
2023-06-19T02:57:18.059Z,19.93
2023-06-19T02:58:51.103Z,19.94
2023-06-19T03:00:23.131Z,19.93
2023-06-19T03:01:55.103Z,19.99
2023-06-19T03:03:26.953Z,19.94
2023-06-19T03:04:58.751Z,19.99
2023-06-19T03:06:30.500Z,19.96
2023-06-19T03:08:02.323Z,19.99
2023-06-19T03:09:33.984Z,19.93
2023-06-19T03:11:06.310Z,19.92
2023-06-19T03:12:38.029Z,20.02
2023-06-19T03:14:11.082Z,19.86
2023-06-19T03:15:43.025Z,19.77
2023-06-19T03:17:15.317Z,19.79
2023-06-19T03:18:47.806Z,19.75
2023-06-19T03:20:21.984Z,19.70
2023-06-19T03:21:54.046Z,19.77
2023-06-19T03:23:25.699Z,19.82
2023-06-19T03:24:57.420Z,19.80
2023-06-19T03:26:29.195Z,19.81
2023-06-19T03:28:00.919Z,19.84
2023-06-19T03:29:34.004Z,19.78
2023-06-19T03:31:05.659Z,19.77
2023-06-19T03:32:37.474Z,19.75
2023-06-19T03:34:09.159Z,19.73
2023-06-19T03:35:41.829Z,19.75
2023-06-19T03:37:14.315Z,19.78
2023-06-19T03:38:46.156Z,19.81
2023-06-19T03:40:18.222Z,19.81
2023-06-19T03:41:49.925Z,19.76
2023-06-19T03:43:21.654Z,19.74
2023-06-19T03:44:54.748Z,19.73
2023-06-19T03:46:26.610Z,19.70
2023-06-19T03:47:58.448Z,19.80
2023-06-19T03:49:30.203Z,19.77
2023-06-19T03:51:02.125Z,19.71
2023-06-19T03:52:34.315Z,19.80
2023-06-19T03:54:06.148Z,19.79
2023-06-19T03:55:37.868Z,19.78
2023-06-19T03:57:09.934Z,19.80
2023-06-19T03:58:41.661Z,19.81
2023-06-19T04:00:15.973Z,19.89
2023-06-19T04:01:47.943Z,19.86
2023-06-19T04:03:19.835Z,19.80
2023-06-19T04:04:51.565Z,19.84
2023-06-19T04:06:23.945Z,19.85
2023-06-19T04:07:55.650Z,19.75
2023-06-19T04:09:27.338Z,19.82
2023-06-19T04:10:59.380Z,19.84
2023-06-19T04:12:31.075Z,19.89
2023-06-19T04:14:02.933Z,19.88
2023-06-19T04:15:37.010Z,20.01
2023-06-19T04:17:08.916Z,19.84
2023-06-19T04:18:40.658Z,19.82
2023-06-19T04:20:13.311Z,19.86
2023-06-19T04:21:44.987Z,19.85
2023-06-19T04:23:16.794Z,19.73
2023-06-19T04:24:48.517Z,19.49
2023-06-19T04:26:22.412Z,19.74
2023-06-19T04:27:54.074Z,19.75
2023-06-19T04:29:25.745Z,19.74
2023-06-19T04:31:01.725Z,19.88
2023-06-19T04:32:33.631Z,19.88
2023-06-19T04:34:05.847Z,19.87
2023-06-19T04:35:43.603Z,20.02
2023-06-19T04:37:20.134Z,19.78
2023-06-19T04:38:54.672Z,19.74
2023-06-19T04:40:26.929Z,19.60
2023-06-19T04:41:58.949Z,19.74
2023-06-19T04:43:30.601Z,19.78
2023-06-19T04:45:02.373Z,20.02
2023-06-19T04:46:36.223Z,19.68
2023-06-19T04:48:08.058Z,19.51
2023-06-19T04:49:40.106Z,19.80
2023-06-19T04:51:11.980Z,19.66
2023-06-19T04:52:43.630Z,19.64
2023-06-19T04:54:15.513Z,19.77
2023-06-19T04:55:47.546Z,19.70
2023-06-19T04:57:19.199Z,19.76
2023-06-19T04:58:52.355Z,19.62
2023-06-19T05:00:25.122Z,19.49
2023-06-19T05:01:59.034Z,19.53
2023-06-19T05:03:30.880Z,19.57
2023-06-19T05:05:04.634Z,19.68
2023-06-19T05:06:36.401Z,19.39
2023-06-19T05:08:08.148Z,19.39
2023-06-19T05:09:39.829Z,19.50
2023-06-19T05:11:11.468Z,19.44
2023-06-19T05:12:43.256Z,19.41
2023-06-19T05:14:17.631Z,19.48
2023-06-19T05:15:49.869Z,19.53
2023-06-19T05:17:23.083Z,19.61
2023-06-19T05:18:54.848Z,19.48
2023-06-19T05:20:26.688Z,19.18
2023-06-19T05:21:58.589Z,19.14
2023-06-19T05:23:30.325Z,19.25
2023-06-19T05:25:01.984Z,19.58
2023-06-19T05:26:33.817Z,19.76
2023-06-19T05:28:06.237Z,19.46
2023-06-19T05:29:38.174Z,19.11
2023-06-19T05:31:10.207Z,19.08
2023-06-19T05:32:43.307Z,19.21
2023-06-19T05:34:15.202Z,19.67
2023-06-19T05:35:53.305Z,19.65
2023-06-19T05:37:25.047Z,19.89
2023-06-19T05:38:56.788Z,19.67
2023-06-19T05:40:29.848Z,19.47
2023-06-19T05:42:02.918Z,19.60
2023-06-19T05:43:34.685Z,19.70
2023-06-19T05:45:07.337Z,19.51
2023-06-19T05:46:42.456Z,19.40
2023-06-19T05:48:18.849Z,19.22
2023-06-19T05:49:53.922Z,19.52
2023-06-19T05:51:33.926Z,19.61
2023-06-19T05:53:27.278Z,19.54
2023-06-19T05:55:04.399Z,19.33
2023-06-19T05:56:39.120Z,19.25
2023-06-19T05:58:11.092Z,19.56
2023-06-19T05:59:43.161Z,19.34
2023-06-19T06:01:17.170Z,19.31
2023-06-19T06:02:49.063Z,19.22
2023-06-19T06:04:23.180Z,19.16
2023-06-19T06:06:41.712Z,19.30
2023-06-19T06:08:13.441Z,19.40
2023-06-19T06:09:45.130Z,19.56
2023-06-19T06:11:16.780Z,19.68
2023-06-19T06:12:49.081Z,19.56
2023-06-19T06:14:20.931Z,19.27
2023-06-19T06:15:52.634Z,19.46
2023-06-19T06:17:24.587Z,19.66
2023-06-19T06:18:56.480Z,19.12
2023-06-19T06:20:29.839Z,19.58
2023-06-19T06:22:01.517Z,19.67
2023-06-19T06:23:33.244Z,19.66
2023-06-19T06:25:05.611Z,19.59
2023-06-19T06:26:38.126Z,19.47
2023-06-19T06:28:09.858Z,19.37
2023-06-19T06:29:41.508Z,19.47
2023-06-19T06:31:13.171Z,19.68
2023-06-19T06:32:44.978Z,19.60
2023-06-19T06:34:17.100Z,19.62
2023-06-19T06:35:50.226Z,19.65
2023-06-19T06:37:32.284Z,19.47
2023-06-19T06:39:04.084Z,19.38
2023-06-19T06:40:35.839Z,19.55
2023-06-19T06:42:07.604Z,19.63
2023-06-19T06:43:43.721Z,19.89
2023-06-19T06:45:15.494Z,19.84
2023-06-19T06:46:47.384Z,19.96
2023-06-19T06:48:19.114Z,19.93
2023-06-19T06:49:51.466Z,19.70
2023-06-19T06:51:25.747Z,19.53
2023-06-19T06:52:57.407Z,19.66
2023-06-19T06:54:29.070Z,19.73
2023-06-19T06:56:01.165Z,19.89
2023-06-19T06:57:32.923Z,19.84
2023-06-19T06:59:04.562Z,19.86
2023-06-19T07:00:36.274Z,19.66
2023-06-19T07:02:08.130Z,19.87
2023-06-19T07:03:40.623Z,20.14
2023-06-19T07:05:12.467Z,20.19
2023-06-19T07:06:45.652Z,20.37
2023-06-19T07:08:17.317Z,20.41
2023-06-19T07:09:49.118Z,20.42
2023-06-19T07:11:20.798Z,20.29
2023-06-19T07:12:52.576Z,20.11
2023-06-19T07:14:24.312Z,20.11
2023-06-19T07:15:56.081Z,20.18
2023-06-19T07:17:27.934Z,20.35
2023-06-19T07:18:59.765Z,20.29
2023-06-19T07:20:31.445Z,20.40
2023-06-19T07:22:05.316Z,20.45
2023-06-19T07:23:38.051Z,20.43
2023-06-19T07:25:10.892Z,20.48
2023-06-19T07:26:42.629Z,20.32
2023-06-19T07:28:14.310Z,20.40
2023-06-19T07:29:46.038Z,20.32
2023-06-19T07:31:17.695Z,20.35
2023-06-19T07:32:49.673Z,20.52
2023-06-19T07:34:21.476Z,20.61
2023-06-19T07:35:53.189Z,20.68
2023-06-19T07:37:26.392Z,20.81
2023-06-19T07:38:58.106Z,20.72
2023-06-19T07:40:29.768Z,20.73
2023-06-19T07:42:01.490Z,20.71
2023-06-19T07:43:33.263Z,20.60
2023-06-19T07:45:06.125Z,20.54
2023-06-19T07:46:37.959Z,20.47
2023-06-19T07:48:09.691Z,20.28
2023-06-19T07:49:41.461Z,20.13
2023-06-19T07:51:13.333Z,20.26
2023-06-19T07:52:46.345Z,20.37
2023-06-19T07:54:18.168Z,20.41
2023-06-19T07:55:49.913Z,20.34
2023-06-19T07:57:21.880Z,20.37
2023-06-19T07:58:53.569Z,20.48
2023-06-19T08:00:25.938Z,20.40
2023-06-19T08:01:57.952Z,20.33
2023-06-19T08:03:29.889Z,20.29
2023-06-19T08:05:01.709Z,20.33
2023-06-19T08:06:33.488Z,20.31
2023-06-19T08:08:06.655Z,20.61
2023-06-19T08:09:38.316Z,20.72
2023-06-19T08:11:10.025Z,20.82
2023-06-19T08:12:42.115Z,20.85
2023-06-19T08:14:13.865Z,20.89
2023-06-19T08:15:46.433Z,20.69
2023-06-19T08:17:18.248Z,20.65
2023-06-19T08:18:49.973Z,20.80
2023-06-19T08:20:21.779Z,20.92
2023-06-19T08:21:56.165Z,21.12
2023-06-19T08:23:29.265Z,21.53
2023-06-19T08:25:01.001Z,21.70
2023-06-19T08:26:32.788Z,21.66
2023-06-19T08:28:05.926Z,21.82
2023-06-19T08:31:35.101Z,21.83
2023-06-19T08:33:06.873Z,21.50
2023-06-19T08:34:39.254Z,21.51
2023-06-19T08:36:10.894Z,21.61
2023-06-19T08:37:42.548Z,21.88
2023-06-19T08:39:15.642Z,22.27
2023-06-19T08:40:47.338Z,21.96
2023-06-19T08:42:19.036Z,21.77
2023-06-19T08:43:50.630Z,21.78
2023-06-19T08:45:22.344Z,22.22
2023-06-19T08:46:53.998Z,22.44
2023-06-19T08:48:25.627Z,22.66
2023-06-19T08:49:57.314Z,22.81
2023-06-19T08:51:29.653Z,22.95
2023-06-19T08:53:01.351Z,23.11
2023-06-19T08:54:34.483Z,22.75
2023-06-19T08:56:06.162Z,22.51
2023-06-19T08:57:38.738Z,22.50
2023-06-19T08:59:11.445Z,22.78
2023-06-19T09:00:48.127Z,23.30
2023-06-19T09:02:20.076Z,23.49
2023-06-19T09:03:53.707Z,23.74
2023-06-19T09:05:26.512Z,23.82
2023-06-19T09:06:59.561Z,23.87
2023-06-19T09:08:31.695Z,23.46
2023-06-19T09:10:17.108Z,23.31
2023-06-19T09:11:58.781Z,22.41
2023-06-19T09:13:30.808Z,23.20
2023-06-19T09:15:02.434Z,23.48
2023-06-19T09:16:38.868Z,23.79
2023-06-19T09:18:11.382Z,23.52
2023-06-19T09:19:48.602Z,23.86
2023-06-19T09:21:22.952Z,24.01
2023-06-19T09:22:55.895Z,24.03
2023-06-19T09:24:34.553Z,23.74
2023-06-19T09:26:07.877Z,24.24
2023-06-19T09:27:39.522Z,23.72
2023-06-19T09:29:15.354Z,23.55
2023-06-19T09:30:58.079Z,23.74
2023-06-19T09:32:29.939Z,24.18
2023-06-19T09:34:01.705Z,24.58
2023-06-19T09:35:33.412Z,24.32
2023-06-19T09:37:05.919Z,24.51
2023-06-19T09:38:44.233Z,24.61
2023-06-19T09:40:16.104Z,24.74
2023-06-19T09:41:49.163Z,24.93
2023-06-19T09:43:24.324Z,24.81
2023-06-19T09:44:56.872Z,24.36
2023-06-19T09:46:33.237Z,24.60
2023-06-19T09:48:05.326Z,24.17
2023-06-19T09:49:36.943Z,24.14
2023-06-19T09:51:11.576Z,23.98
2023-06-19T09:52:44.561Z,24.08
2023-06-19T09:54:16.333Z,24.02
2023-06-19T09:55:48.918Z,24.51
2023-06-19T09:57:21.930Z,24.76
2023-06-19T09:58:54.730Z,24.75
2023-06-19T10:00:32.212Z,24.79
2023-06-19T10:02:07.496Z,25.00
2023-06-19T10:03:41.528Z,24.98
2023-06-19T10:05:15.234Z,24.59
2023-06-19T10:06:47.863Z,24.23
2023-06-19T10:08:29.217Z,24.39
2023-06-19T10:10:02.219Z,24.25
2023-06-19T10:11:45.563Z,24.62
2023-06-19T10:13:18.933Z,24.67
2023-06-19T10:14:51.300Z,24.77
2023-06-19T10:16:23.312Z,24.63
2023-06-19T10:18:00.252Z,23.85
2023-06-19T10:19:31.929Z,24.07
2023-06-19T10:21:03.637Z,24.26
2023-06-19T10:22:35.289Z,24.28
2023-06-19T10:24:07.043Z,24.29
2023-06-19T10:25:40.053Z,24.38
2023-06-19T10:27:13.396Z,24.92
2023-06-19T10:28:49.385Z,24.96
2023-06-19T10:30:21.676Z,24.48
2023-06-19T10:31:53.732Z,24.31
2023-06-19T10:33:26.587Z,24.35
2023-06-19T10:34:58.229Z,24.35
2023-06-19T10:36:29.893Z,24.51
2023-06-19T10:38:01.506Z,24.41
2023-06-19T10:39:33.532Z,24.55
2023-06-19T10:41:05.149Z,24.31
2023-06-19T10:42:37.440Z,24.19
2023-06-19T10:44:13.544Z,24.78
2023-06-19T10:45:48.371Z,24.96
2023-06-19T10:47:20.068Z,25.49
2023-06-19T10:48:51.706Z,26.19
2023-06-19T10:50:24.216Z,25.67
2023-06-19T10:52:00.049Z,25.41
2023-06-19T10:53:32.652Z,25.64
2023-06-19T10:55:05.647Z,26.14
2023-06-19T10:56:37.616Z,26.34
2023-06-19T10:58:09.295Z,26.42
2023-06-19T10:59:42.274Z,26.36
2023-06-19T11:01:13.995Z,26.37
2023-06-19T11:02:45.741Z,27.10
2023-06-19T11:04:17.641Z,27.62
2023-06-19T11:05:49.626Z,27.82
2023-06-19T11:07:21.338Z,26.80
2023-06-19T11:08:55.731Z,26.18
2023-06-19T11:10:28.982Z,26.48
2023-06-19T11:12:02.131Z,26.39
2023-06-19T11:13:33.741Z,26.80
2023-06-19T11:15:08.168Z,26.42
2023-06-19T11:16:42.779Z,26.09
2023-06-19T11:18:15.836Z,26.45
2023-06-19T11:19:47.485Z,26.38
2023-06-19T11:21:19.145Z,26.21
2023-06-19T11:22:55.863Z,26.20
2023-06-19T11:24:27.919Z,26.13
2023-06-19T11:26:03.537Z,26.22
2023-06-19T11:27:36.182Z,26.27
2023-06-19T11:29:17.460Z,26.13
2023-06-19T11:30:58.476Z,25.55
2023-06-19T11:32:34.774Z,25.69
2023-06-19T11:34:07.241Z,25.95
2023-06-19T11:35:40.308Z,26.26
2023-06-19T11:37:15.323Z,26.45
2023-06-19T11:38:47.052Z,26.23
2023-06-19T11:40:22.322Z,26.50
2023-06-19T11:41:55.097Z,26.39
2023-06-19T11:43:27.113Z,26.60
2023-06-19T11:45:02.611Z,27.13
2023-06-19T11:46:35.666Z,27.35
2023-06-19T11:48:07.567Z,27.65
2023-06-19T11:49:39.289Z,27.49
2023-06-19T11:51:11.068Z,27.53
2023-06-19T11:52:43.460Z,27.48
2023-06-19T11:54:18.960Z,27.62
2023-06-19T11:55:50.701Z,27.77
2023-06-19T11:57:22.332Z,28.02
2023-06-19T11:58:54.002Z,28.59
2023-06-19T12:00:26.418Z,28.28
2023-06-19T12:02:00.676Z,28.48
2023-06-19T12:03:32.517Z,28.25
2023-06-19T12:05:04.942Z,27.94
2023-06-19T12:06:36.849Z,27.57
2023-06-19T12:08:08.485Z,27.93
2023-06-19T12:09:40.564Z,28.12
2023-06-19T12:11:14.090Z,28.46
2023-06-19T12:12:45.802Z,28.93
2023-06-19T12:14:17.416Z,28.94
2023-06-19T12:15:49.006Z,28.91
2023-06-19T12:17:22.099Z,29.16
2023-06-19T12:18:54.176Z,29.04
2023-06-19T12:20:26.596Z,28.49
2023-06-19T12:22:00.165Z,28.03
2023-06-19T12:23:31.784Z,28.22
2023-06-19T12:25:03.981Z,28.15
2023-06-19T12:26:37.926Z,28.74
2023-06-19T12:28:10.326Z,28.72
2023-06-19T12:29:41.923Z,28.54
2023-06-19T12:31:13.612Z,28.62
2023-06-19T12:32:50.728Z,28.01
2023-06-19T12:34:30.458Z,28.19
2023-06-19T12:36:03.048Z,28.95
2023-06-19T12:37:34.676Z,28.23
2023-06-19T12:39:14.276Z,28.51
2023-06-19T12:40:46.134Z,28.78
2023-06-19T12:42:17.914Z,29.16
2023-06-19T12:43:49.575Z,28.99
2023-06-19T12:45:21.193Z,28.83
2023-06-19T12:46:53.891Z,28.34
2023-06-19T12:48:27.177Z,28.71
2023-06-19T12:49:59.043Z,28.86
2023-06-19T12:51:30.771Z,28.67
2023-06-19T12:53:02.469Z,28.82
2023-06-19T12:54:34.168Z,28.74
2023-06-19T12:56:09.753Z,28.58
2023-06-19T12:57:45.668Z,29.23
2023-06-19T12:59:17.335Z,29.71
2023-06-19T13:00:49.032Z,30.27
2023-06-19T13:02:20.711Z,29.55
2023-06-19T13:03:53.853Z,29.48
2023-06-19T13:05:25.543Z,29.78
2023-06-19T13:06:57.171Z,29.94
2023-06-19T13:08:28.889Z,30.21
2023-06-19T13:10:00.516Z,29.74
2023-06-19T13:11:32.266Z,29.97
2023-06-19T13:13:03.935Z,29.74
2023-06-19T13:14:35.632Z,29.91
2023-06-19T13:16:07.351Z,30.32
2023-06-19T13:17:39.293Z,30.12
2023-06-19T13:19:12.284Z,29.42
2023-06-19T13:20:45.978Z,28.99
2023-06-19T13:22:17.958Z,29.21
2023-06-19T13:23:50.242Z,28.91
2023-06-19T13:25:22.055Z,28.82
2023-06-19T13:26:53.702Z,28.59
2023-06-19T13:28:25.401Z,28.57
2023-06-19T13:29:57.076Z,28.56
2023-06-19T13:31:28.859Z,28.50
2023-06-19T13:33:03.189Z,28.72
2023-06-19T13:34:37.771Z,29.04
2023-06-19T13:36:09.402Z,29.38
2023-06-19T13:37:41.143Z,29.08
2023-06-19T13:39:12.980Z,29.06
2023-06-19T13:40:44.613Z,29.25
2023-06-19T13:42:16.861Z,29.58
2023-06-19T13:43:48.674Z,29.89
2023-06-19T13:45:20.324Z,29.56
2023-06-19T13:46:52.005Z,29.09
2023-06-19T13:48:23.853Z,29.33
2023-06-19T13:49:56.910Z,29.56
2023-06-19T13:51:28.995Z,29.46
2023-06-19T13:53:00.742Z,29.34
2023-06-19T13:54:32.419Z,29.02
2023-06-19T13:56:07.206Z,28.86
2023-06-19T13:57:39.184Z,28.65
2023-06-19T13:59:10.904Z,29.04
2023-06-19T14:00:42.722Z,28.76
2023-06-19T14:02:14.428Z,28.87
2023-06-19T14:03:46.325Z,29.17
2023-06-19T14:05:19.308Z,29.36
2023-06-19T14:06:51.114Z,29.73
2023-06-19T14:08:22.778Z,29.63
2023-06-19T14:09:55.522Z,29.64
2023-06-19T14:11:27.122Z,29.43
2023-06-19T14:12:59.375Z,29.62
2023-06-19T14:14:31.187Z,29.54
2023-06-19T14:16:03.030Z,29.42
2023-06-19T14:17:34.794Z,29.59
2023-06-19T14:19:06.453Z,29.42
2023-06-19T14:20:39.547Z,29.46
2023-06-19T14:22:11.497Z,29.64
2023-06-19T14:23:45.215Z,29.60
2023-06-19T14:25:17.015Z,29.05
2023-06-19T14:26:48.695Z,28.89
2023-06-19T14:28:20.380Z,29.17
2023-06-19T14:29:51.995Z,28.89
2023-06-19T14:31:23.888Z,28.73
2023-06-19T14:32:55.574Z,29.15
2023-06-19T14:34:27.270Z,28.91
2023-06-19T14:36:00.664Z,29.24
2023-06-19T14:37:32.483Z,29.39
2023-06-19T14:39:04.297Z,29.04
2023-06-19T14:40:35.928Z,28.80
2023-06-19T14:42:07.903Z,29.04
2023-06-19T14:43:39.794Z,29.29
2023-06-19T14:45:11.890Z,29.33
2023-06-19T14:46:43.853Z,28.97
2023-06-19T14:48:15.513Z,29.59
2023-06-19T14:49:47.149Z,29.71
2023-06-19T14:51:20.459Z,29.02
2023-06-19T14:52:52.184Z,28.77
2023-06-19T14:54:24.009Z,29.17
2023-06-19T14:55:55.644Z,29.07
2023-06-19T14:57:27.668Z,29.48
2023-06-19T14:58:59.357Z,29.70
2023-06-19T15:00:31.171Z,29.40
2023-06-19T15:02:03.939Z,28.96
2023-06-19T15:03:36.278Z,28.62
2023-06-19T15:05:08.895Z,28.60
2023-06-19T15:06:42.060Z,28.41
2023-06-19T15:08:13.647Z,28.43
2023-06-19T15:09:45.274Z,28.45
2023-06-19T15:11:16.903Z,28.51
2023-06-19T15:12:48.562Z,28.62
2023-06-19T15:14:20.689Z,28.61
2023-06-19T15:15:52.325Z,28.22
2023-06-19T15:17:23.970Z,28.38
2023-06-19T15:18:55.689Z,28.20
2023-06-19T15:20:27.392Z,28.18
2023-06-19T15:22:00.373Z,28.32
2023-06-19T15:23:32.209Z,28.30
2023-06-19T15:25:04.017Z,28.14
2023-06-19T15:26:39.132Z,27.62
2023-06-19T15:28:11.748Z,27.75
2023-06-19T15:29:43.382Z,27.93
2023-06-19T15:31:16.853Z,27.77
2023-06-19T15:32:48.499Z,27.96
2023-06-19T15:34:20.134Z,27.94
2023-06-19T15:35:52.110Z,27.70
2023-06-19T15:37:25.159Z,27.87
2023-06-19T15:38:56.903Z,27.95
2023-06-19T15:40:28.608Z,27.97
2023-06-19T15:42:00.390Z,28.14
2023-06-19T15:43:32.102Z,28.00
2023-06-19T15:45:04.030Z,27.61
2023-06-19T15:46:35.737Z,27.31
2023-06-19T15:48:07.463Z,27.48
2023-06-19T15:49:39.240Z,27.39
2023-06-19T15:51:11.354Z,27.41
2023-06-19T15:52:44.413Z,27.35
2023-06-19T15:54:16.051Z,27.35
2023-06-19T15:55:47.651Z,27.50
2023-06-19T15:57:19.386Z,27.49
2023-06-19T15:58:52.113Z,27.42
2023-06-19T16:00:24.652Z,27.40
2023-06-19T16:01:56.447Z,27.20
2023-06-19T16:03:31.323Z,27.31
2023-06-19T16:05:03.624Z,27.31
2023-06-19T16:06:35.369Z,27.30
2023-06-19T16:08:08.329Z,27.18
2023-06-19T16:09:50.313Z,27.07
2023-06-19T16:11:26.557Z,27.16
2023-06-19T16:12:58.258Z,27.04
2023-06-19T16:14:29.888Z,27.14
2023-06-19T16:16:01.676Z,27.17
2023-06-19T16:17:33.883Z,27.28
2023-06-19T16:19:05.587Z,27.29
2023-06-19T16:20:37.284Z,27.24
2023-06-19T16:22:09.000Z,26.97
2023-06-19T16:23:42.104Z,26.92
2023-06-19T16:25:13.810Z,27.14
2023-06-19T16:26:45.425Z,27.00
2023-06-19T16:28:17.083Z,27.12
2023-06-19T16:29:48.748Z,27.10
2023-06-19T16:31:20.417Z,27.05
2023-06-19T16:32:52.115Z,26.99
2023-06-19T16:34:23.804Z,27.02
2023-06-19T16:35:58.432Z,26.98
2023-06-19T16:37:30.123Z,27.07
2023-06-19T16:39:03.577Z,27.21
2023-06-19T16:40:35.356Z,27.25
2023-06-19T16:42:07.344Z,27.29
2023-06-19T16:43:39.035Z,27.23
2023-06-19T16:45:11.274Z,27.20
2023-06-19T16:46:42.914Z,27.29
2023-06-19T16:48:14.718Z,27.23
2023-06-19T16:49:46.413Z,27.10
2023-06-19T16:51:18.320Z,27.22
2023-06-19T16:52:50.479Z,27.12
2023-06-19T16:54:23.710Z,27.12
2023-06-19T16:55:57.027Z,27.16
2023-06-19T16:57:30.132Z,27.04
2023-06-19T16:59:02.957Z,27.14
2023-06-19T17:00:34.818Z,27.16
2023-06-19T17:02:06.636Z,27.17
2023-06-19T17:03:38.457Z,27.13
2023-06-19T17:05:10.321Z,26.98
2023-06-19T17:06:42.005Z,26.97
2023-06-19T17:08:13.956Z,26.88
2023-06-19T17:09:49.696Z,26.95
2023-06-19T17:11:21.446Z,27.05
2023-06-19T17:12:53.178Z,27.05
2023-06-19T17:14:24.860Z,27.00
2023-06-19T17:15:59.737Z,27.06
2023-06-19T17:17:32.406Z,26.90
2023-06-19T17:19:06.676Z,26.88
2023-06-19T17:20:38.723Z,26.85
2023-06-19T17:22:10.433Z,26.85
2023-06-19T17:23:42.102Z,26.79
2023-06-19T17:25:15.400Z,26.83
2023-06-19T17:26:47.111Z,26.83
2023-06-19T17:28:18.751Z,26.82
2023-06-19T17:29:50.406Z,26.80
2023-06-19T17:31:22.032Z,26.74
2023-06-19T17:32:53.665Z,26.66
2023-06-19T17:34:25.340Z,26.64
2023-06-19T17:35:56.940Z,26.15
2023-06-19T17:37:28.628Z,26.34
2023-06-19T17:39:00.259Z,26.08
2023-06-19T17:40:33.276Z,26.18
2023-06-19T17:42:07.547Z,26.03
2023-06-19T17:43:39.228Z,26.18
2023-06-19T17:45:12.350Z,26.21
2023-06-19T17:46:44.909Z,25.92
2023-06-19T17:48:16.642Z,26.12
2023-06-19T17:49:51.355Z,25.94
2023-06-19T17:51:24.019Z,25.72
2023-06-19T17:52:55.663Z,25.50
2023-06-19T17:54:27.359Z,25.63
2023-06-19T17:56:04.959Z,25.70
2023-06-19T17:57:36.831Z,25.67
2023-06-19T17:59:08.629Z,25.74
2023-06-19T18:00:40.287Z,25.75
2023-06-19T18:02:12.046Z,25.66
2023-06-19T18:03:43.985Z,25.77
2023-06-19T18:05:15.973Z,25.77
2023-06-19T18:06:47.780Z,25.76
2023-06-19T18:08:19.474Z,25.87
2023-06-19T18:09:51.218Z,25.67
2023-06-19T18:11:24.294Z,25.57
2023-06-19T18:12:55.894Z,25.58
2023-06-19T18:14:27.793Z,25.44
2023-06-19T18:16:11.239Z,25.40
2023-06-19T18:17:44.371Z,25.39
2023-06-19T18:19:16.020Z,25.38
2023-06-19T18:20:47.959Z,25.38
2023-06-19T18:22:19.685Z,25.30
2023-06-19T18:23:51.344Z,25.02
2023-06-19T18:25:22.975Z,25.15
2023-06-19T18:26:55.945Z,25.20
2023-06-19T18:28:27.753Z,24.99
2023-06-19T18:30:00.892Z,24.89
2023-06-19T18:31:35.015Z,25.02
2023-06-19T18:33:06.759Z,24.84
2023-06-19T18:34:38.644Z,24.88
2023-06-19T18:36:10.331Z,24.76
2023-06-19T18:37:41.993Z,24.62
2023-06-19T18:39:13.709Z,24.51
2023-06-19T18:40:45.537Z,24.32
2023-06-19T18:42:18.780Z,24.09
2023-06-19T18:43:50.460Z,24.08
2023-06-19T18:45:22.130Z,24.03
2023-06-19T18:46:53.733Z,23.94
2023-06-19T18:48:26.167Z,23.61
2023-06-19T18:49:57.921Z,23.46
2023-06-19T18:51:29.602Z,23.35
2023-06-19T18:53:01.227Z,23.11
2023-06-19T18:54:33.116Z,23.28
2023-06-19T18:56:05.091Z,23.26
2023-06-19T18:57:38.141Z,23.08
2023-06-19T18:59:09.860Z,23.02
2023-06-19T19:00:41.575Z,22.96
2023-06-19T19:02:13.340Z,22.88
2023-06-19T19:03:45.091Z,22.45
2023-06-19T19:06:51.566Z,22.55
2023-06-19T19:08:23.996Z,22.52
2023-06-19T19:09:55.672Z,22.63
2023-06-19T19:11:27.384Z,22.80
2023-06-19T19:13:00.374Z,22.57
2023-06-19T19:14:31.963Z,22.59
2023-06-19T19:16:03.823Z,22.63
2023-06-19T19:17:36.121Z,22.66
2023-06-19T19:19:08.088Z,22.33
2023-06-19T19:20:39.791Z,22.40
2023-06-19T19:22:11.480Z,22.55
2023-06-19T19:23:43.107Z,22.31
2023-06-19T19:25:15.229Z,22.34
2023-06-19T19:26:47.001Z,22.35
2023-06-19T19:28:20.097Z,22.36
2023-06-19T19:29:51.880Z,22.35
2023-06-19T19:31:23.699Z,22.15
2023-06-19T19:32:55.592Z,22.26
2023-06-19T19:34:27.379Z,22.18
2023-06-19T19:35:59.071Z,21.95
2023-06-19T19:48:33.751Z,22.41
2023-06-19T19:50:06.953Z,22.23
2023-06-19T19:51:38.582Z,22.23
2023-06-19T19:53:10.254Z,22.28
2023-06-19T19:54:42.029Z,22.38
2023-06-19T19:56:13.806Z,22.09
2023-06-19T19:57:45.500Z,22.27
2023-06-19T19:59:17.551Z,22.12
2023-06-19T20:00:50.836Z,21.99
2023-06-19T20:02:22.795Z,22.15
2023-06-19T20:03:56.275Z,22.33
2023-06-19T20:05:28.067Z,22.14
2023-06-19T20:06:59.905Z,22.11
2023-06-19T20:08:31.986Z,21.99
2023-06-19T20:10:04.852Z,22.00
2023-06-19T20:11:36.830Z,22.08
2023-06-19T20:13:08.597Z,22.14